Time;durP1;ratioP1;P1;durP2;ratioP2;P2;SDS_P1;SDS_P2;PMS_P1;PMS_P2;Temp;Humidity;BMP_temperature;BMP_pressure;BME280_temperature;BME280_humidity;BME280_pressure;Samples;Min_cycle;Max_cycle;Signal;HPM_P1;HPM_P2
2023/01/10 00:01:55;;;;;;;8.63;5.28;;;;;;;;;;5092415;28;20063;-88
2023/01/10 00:04:25;;;;;;;10.68;4.97;;;;;;;;;;5092481;28;20071;-88
2023/01/10 00:06:52;;;;;;;10.00;5.70;;;;;;;;;;5093224;28;20075;-88
2023/01/10 00:09:19;;;;;;;7.07;4.85;;;;;;;;;;5092402;28;20055;-88
2023/01/10 00:14:33;;;;;;;7.35;4.32;;;;;;;;;;5093354;28;20052;-88
2023/01/10 00:17:04;;;;;;;9.43;4.50;;;;;;;;;;5093124;28;20056;-88
2023/01/10 00:19:31;;;;;;;14.45;4.70;;;;;;;;;;5093166;28;20052;-88
2023/01/10 00:22:06;;;;;;;8.23;4.47;;;;;;;;;;5092320;28;20044;-88
2023/01/10 00:24:34;;;;;;;5.28;4.32;;;;;;;;;;5093513;28;20074;-88
2023/01/10 00:27:01;;;;;;;6.30;4.25;;;;;;;;;;5092104;28;20044;-88
2023/01/10 00:29:34;;;;;;;7.93;4.13;;;;;;;;;;5091981;28;20056;-88
2023/01/10 00:32:01;;;;;;;5.13;4.05;;;;;;;;;;5092217;28;20067;-88
2023/01/10 00:34:29;;;;;;;8.73;4.88;;;;;;;;;;5093758;28;20052;-88
2023/01/10 00:36:57;;;;;;;6.57;4.53;;;;;;;;;;5095737;28;20052;-88
2023/01/10 00:39:26;;;;;;;8.30;4.80;;;;;;;;;;5095702;28;20051;-89
2023/01/10 00:44:39;;;;;;;13.73;6.32;;;;;;;;;;5096456;28;20047;-88
2023/01/10 00:47:06;;;;;;;8.43;4.95;;;;;;;;;;5096675;28;20101;-87
2023/01/10 00:49:33;;;;;;;9.50;4.93;;;;;;;;;;5095725;28;20126;-88
2023/01/10 00:52:01;;;;;;;9.23;5.25;;;;;;;;;;5095556;28;20048;-88
2023/01/10 00:54:28;;;;;;;12.50;5.10;;;;;;;;;;5095360;28;20056;-88
2023/01/10 00:56:55;;;;;;;6.32;4.25;;;;;;;;;;5095122;28;20115;-88
2023/01/10 00:59:23;;;;;;;8.95;4.40;;;;;;;;;;5096460;28;20537;-88
2023/01/10 01:01:51;;;;;;;6.30;4.20;;;;;;;;;;5096702;28;20131;-88
2023/01/10 01:04:18;;;;;;;9.10;4.47;;;;;;;;;;5095126;28;20553;-87
2023/01/10 01:06:47;;;;;;;6.95;3.78;;;;;;;;;;5096217;28;20044;-88
2023/01/10 01:09:14;;;;;;;6.07;4.10;;;;;;;;;;5095207;28;20050;-88
2023/01/10 01:11:42;;;;;;;11.68;5.60;;;;;;;;;;5096186;28;20056;-88
2023/01/10 01:14:10;;;;;;;5.70;4.18;;;;;;;;;;5095180;28;20560;-88
2023/01/10 01:16:37;;;;;;;5.90;4.20;;;;;;;;;;5095933;28;20067;-88
2023/01/10 01:19:04;;;;;;;5.03;4.28;;;;;;;;;;5095266;28;20059;-88
2023/01/10 01:21:31;;;;;;;8.48;4.30;;;;;;;;;;5096107;28;20047;-88
2023/01/10 01:23:58;;;;;;;6.63;3.92;;;;;;;;;;5095927;28;20056;-88
2023/01/10 01:26:26;;;;;;;8.93;4.07;;;;;;;;;;5095650;28;20040;-88
2023/01/10 01:28:53;;;;;;;10.32;3.92;;;;;;;;;;5095134;28;20420;-88
2023/01/10 01:31:21;;;;;;;10.32;4.53;;;;;;;;;;5095760;28;20477;-88
2023/01/10 01:33:48;;;;;;;5.72;4.15;;;;;;;;;;5094916;28;20047;-88
2023/01/10 01:36:15;;;;;;;8.88;4.40;;;;;;;;;;5094708;28;20055;-88
2023/01/10 01:38:42;;;;;;;5.07;4.32;;;;;;;;;;5094732;28;20131;-88
2023/01/10 01:43:58;;;;;;;9.40;4.63;;;;;;;;;;5095471;28;20052;-88
2023/01/10 01:46:26;;;;;;;10.00;5.25;;;;;;;;;;5093863;28;20143;-88
2023/01/10 01:48:53;;;;;;;8.23;4.80;;;;;;;;;;5095487;27;20109;-88
2023/01/10 01:51:25;;;;;;;7.60;4.05;;;;;;;;;;5093163;28;20048;-88
2023/01/10 01:53:55;;;;;;;4.63;3.08;;;;;;;;;;5095339;28;20056;-88
2023/01/10 01:56:24;;;;;;;6.30;3.15;;;;;;;;;;5094066;28;20044;-88
2023/01/10 01:58:57;;;;;;;5.10;3.42;;;;;;;;;;5094232;28;20058;-88
2023/01/10 02:01:26;;;;;;;6.90;3.75;;;;;;;;;;5095132;28;20487;-88
2023/01/10 02:03:54;;;;;;;4.45;3.20;;;;;;;;;;5094211;28;20483;-88
2023/01/10 02:06:23;;;;;;;5.75;3.60;;;;;;;;;;5093680;28;20048;-88
2023/01/10 02:08:55;;;;;;;5.50;3.80;;;;;;;;;;5093972;28;20050;-87
2023/01/10 02:11:22;;;;;;;4.72;3.60;;;;;;;;;;5093890;28;20048;-88
2023/01/10 02:13:49;;;;;;;6.75;3.53;;;;;;;;;;5093991;28;20044;-88
2023/01/10 02:16:17;;;;;;;9.18;4.47;;;;;;;;;;5093300;28;20055;-88
2023/01/10 02:18:44;;;;;;;5.60;3.63;;;;;;;;;;5093856;28;20462;-88
2023/01/10 02:21:20;;;;;;;9.10;4.75;;;;;;;;;;5093940;28;20054;-88
2023/01/10 02:24:20;;;;;;;8.82;4.80;;;;;;;;;;5093803;28;20281;-88
2023/01/10 02:27:04;;;;;;;8.73;4.75;;;;;;;;;;5093500;28;20056;-88
2023/01/10 02:29:50;;;;;;;9.00;4.80;;;;;;;;;;5094432;28;20055;-88
2023/01/10 02:32:35;;;;;;;9.25;4.80;;;;;;;;;;5093596;28;20054;-88
2023/01/10 02:35:22;;;;;;;10.73;4.72;;;;;;;;;;5093597;28;20048;-87
2023/01/10 02:38:08;;;;;;;7.55;4.50;;;;;;;;;;5094500;28;20093;-87
2023/01/10 02:40:43;;;;;;;9.60;4.13;;;;;;;;;;5093740;28;20055;-88
2023/01/10 02:43:15;;;;;;;11.23;5.13;;;;;;;;;;5093624;28;20050;-88
2023/01/10 02:45:47;;;;;;;8.50;4.10;;;;;;;;;;5094025;28;20044;-88
2023/01/10 02:48:16;;;;;;;4.85;3.78;;;;;;;;;;5093576;28;20051;-88
2023/01/10 02:50:43;;;;;;;6.03;5.13;;;;;;;;;;5094421;28;20500;-88
2023/01/10 02:53:16;;;;;;;6.47;5.05;;;;;;;;;;5093577;28;20066;-89
2023/01/10 02:55:55;;;;;;;7.63;4.90;;;;;;;;;;5093044;28;20040;-88
2023/01/10 02:58:34;;;;;;;6.40;4.43;;;;;;;;;;5092215;28;20047;-89
2023/01/10 03:01:26;;;;;;;9.48;4.50;;;;;;;;;;5093213;28;20408;-88
2023/01/10 03:04:14;;;;;;;9.27;5.00;;;;;;;;;;5093072;28;20127;-88
2023/01/10 03:06:52;;;;;;;14.55;6.93;;;;;;;;;;5093983;28;20538;-88
2023/01/10 03:09:34;;;;;;;10.93;6.22;;;;;;;;;;5093958;28;20052;-88
2023/01/10 03:12:04;;;;;;;12.93;5.90;;;;;;;;;;5092925;28;20048;-88
2023/01/10 03:14:32;;;;;;;11.07;6.60;;;;;;;;;;5093033;28;20400;-88
2023/01/10 03:17:01;;;;;;;13.98;6.97;;;;;;;;;;5093577;28;20063;-88
2023/01/10 03:19:37;;;;;;;13.20;7.03;;;;;;;;;;5092822;28;20476;-88
2023/01/10 03:22:04;;;;;;;;;;;;;;;;;;5093315;28;20058;-88
2023/01/10 03:24:33;;;;;;;12.90;8.65;;;;;;;;;;5092841;28;19930;-88
2023/01/10 03:27:06;;;;;;;13.68;8.77;;;;;;;;;;5092593;28;20044;-88
2023/01/10 03:29:38;;;;;;;9.32;6.47;;;;;;;;;;5093892;28;20079;-88
2023/01/10 03:32:07;;;;;;;17.50;6.63;;;;;;;;;;5093532;28;20135;-88
2023/01/10 03:34:35;;;;;;;10.45;5.90;;;;;;;;;;5092555;28;20044;-88
2023/01/10 03:37:07;;;;;;;13.60;5.90;;;;;;;;;;5093574;28;20135;-88
2023/01/10 03:39:44;;;;;;;15.13;7.85;;;;;;;;;;5093772;28;20073;-88
2023/01/10 03:42:15;;;;;;;8.02;6.72;;;;;;;;;;5092640;28;20062;-88
2023/01/10 03:44:53;;;;;;;18.02;8.05;;;;;;;;;;5092377;28;20485;-88
2023/01/10 03:47:36;;;;;;;12.45;7.60;;;;;;;;;;5092475;28;20044;-88
2023/01/10 03:50:06;;;;;;;11.43;6.18;;;;;;;;;;5093678;28;20058;-88
2023/01/10 03:52:34;;;;;;;12.43;5.60;;;;;;;;;;5092483;28;20093;-88
2023/01/10 03:55:02;;;;;;;11.45;4.93;;;;;;;;;;5093494;28;20067;-89
2023/01/10 03:57:29;;;;;;;7.38;4.72;;;;;;;;;;5092434;28;20519;-88
2023/01/10 03:59:57;;;;;;;7.35;4.75;;;;;;;;;;5092642;28;20381;-88
2023/01/10 04:02:26;;;;;;;7.45;4.75;;;;;;;;;;5093471;28;20048;-89
2023/01/10 04:04:54;;;;;;;7.45;4.97;;;;;;;;;;5093563;28;20138;-89
2023/01/10 04:07:21;;;;;;;10.38;6.38;;;;;;;;;;5093353;28;20062;-88
2023/01/10 04:09:51;;;;;;;14.75;5.57;;;;;;;;;;5094771;28;20044;-89
2023/01/10 04:12:18;;;;;;;7.78;5.45;;;;;;;;;;5097554;28;20044;-88
2023/01/10 04:14:46;;;;;;;9.68;5.28;;;;;;;;;;5096508;28;20052;-88
2023/01/10 04:17:14;;;;;;;12.38;5.32;;;;;;;;;;5096090;28;20048;-88
2023/01/10 04:19:41;;;;;;;7.95;4.78;;;;;;;;;;5096207;28;20131;-89
2023/01/10 04:22:08;;;;;;;10.82;5.32;;;;;;;;;;5096196;28;20571;-88
2023/01/10 04:24:36;;;;;;;11.55;5.47;;;;;;;;;;5097302;28;20074;-88
2023/01/10 04:27:03;;;;;;;11.40;5.63;;;;;;;;;;5096931;28;20047;-88
2023/01/10 04:29:30;;;;;;;8.90;5.25;;;;;;;;;;5096040;28;20062;-88
2023/01/10 04:31:58;;;;;;;8.55;5.30;;;;;;;;;;5096230;28;20075;-88
2023/01/10 04:34:25;;;;;;;8.10;5.13;;;;;;;;;;5096263;28;20048;-88
2023/01/10 04:36:52;;;;;;;8.85;4.85;;;;;;;;;;5096020;28;20051;-89
2023/01/10 04:39:19;;;;;;;9.48;4.53;;;;;;;;;;5096026;28;20135;-88
2023/01/10 04:41:46;;;;;;;6.07;4.22;;;;;;;;;;5096252;28;20108;-88
2023/01/10 04:44:16;;;;;;;7.90;4.03;;;;;;;;;;5096099;28;20169;-88
2023/01/10 04:46:44;;;;;;;7.55;4.03;;;;;;;;;;5096395;28;20051;-88
2023/01/10 04:49:11;;;;;;;6.50;3.33;;;;;;;;;;5095440;28;20131;-88
2023/01/10 04:51:39;;;;;;;7.95;4.55;;;;;;;;;;5095669;28;20056;-88
2023/01/10 04:54:06;;;;;;;10.77;5.00;;;;;;;;;;5097088;28;20052;-89
2023/01/10 04:56:33;;;;;;;7.93;4.55;;;;;;;;;;5096695;28;20070;-88
2023/01/10 04:59:01;;;;;;;6.72;4.82;;;;;;;;;;5095616;28;20062;-88
2023/01/10 05:01:28;;;;;;;10.32;4.95;;;;;;;;;;5096348;28;20502;-88
2023/01/10 05:03:56;;;;;;;11.52;4.85;;;;;;;;;;5095353;28;20079;-88
2023/01/10 05:06:24;;;;;;;9.95;4.85;;;;;;;;;;5095281;28;20040;-88
2023/01/10 05:08:51;;;;;;;6.45;4.85;;;;;;;;;;5095311;28;20048;-88
2023/01/10 05:11:18;;;;;;;7.72;4.63;;;;;;;;;;5095383;28;20059;-89
2023/01/10 05:13:45;;;;;;;7.88;5.70;;;;;;;;;;5096354;28;20079;-88
2023/01/10 05:16:14;;;;;;;7.55;5.13;;;;;;;;;;5094669;28;20058;-88
2023/01/10 05:18:42;;;;;;;13.65;5.60;;;;;;;;;;5096105;28;20044;-88
2023/01/10 05:21:11;;;;;;;5.90;4.20;;;;;;;;;;5093941;28;20488;-89
2023/01/10 05:23:39;;;;;;;6.75;3.83;;;;;;;;;;5095081;28;20044;-88
2023/01/10 05:26:07;;;;;;;4.28;3.85;;;;;;;;;;5094825;28;20511;-88
2023/01/10 05:28:35;;;;;;;3.70;3.40;;;;;;;;;;5095641;28;20473;-88
2023/01/10 05:31:02;;;;;;;5.50;4.20;;;;;;;;;;5094810;28;20048;-88
2023/01/10 05:33:29;;;;;;;8.73;4.15;;;;;;;;;;5095668;28;20071;-88
2023/01/10 05:35:56;;;;;;;6.28;3.97;;;;;;;;;;5094841;28;20416;-88
2023/01/10 05:38:24;;;;;;;4.82;4.32;;;;;;;;;;5094772;28;20044;-88
2023/01/10 05:40:55;;;;;;;10.52;4.25;;;;;;;;;;5095900;28;20054;-89
2023/01/10 05:43:22;;;;;;;6.63;4.13;;;;;;;;;;5094446;28;20048;-88
2023/01/10 05:45:50;;;;;;;10.02;4.78;;;;;;;;;;5094267;28;20056;-88
2023/01/10 05:48:18;;;;;;;7.53;4.10;;;;;;;;;;5095606;28;20055;-88
2023/01/10 05:50:45;;;;;;;5.60;3.63;;;;;;;;;;5095636;28;20047;-88
2023/01/10 05:53:12;;;;;;;5.63;4.10;;;;;;;;;;5094562;28;20040;-88
2023/01/10 05:55:39;;;;;;;8.32;4.78;;;;;;;;;;5094502;28;20152;-88
2023/01/10 05:58:09;;;;;;;6.13;4.43;;;;;;;;;;5094453;28;20052;-88
2023/01/10 06:00:38;;;;;;;7.13;4.53;;;;;;;;;;5094444;28;20048;-88
2023/01/10 06:03:05;;;;;;;8.63;4.20;;;;;;;;;;5094362;28;20047;-88
2023/01/10 06:05:33;;;;;;;7.10;4.10;;;;;;;;;;5094210;28;20044;-88
2023/01/10 06:08:00;;;;;;;6.55;5.15;;;;;;;;;;5094845;28;20048;-88
2023/01/10 06:10:27;;;;;;;6.43;4.47;;;;;;;;;;5094631;28;20060;-88
2023/01/10 06:12:54;;;;;;;4.95;4.15;;;;;;;;;;5094557;28;20048;-88
2023/01/10 06:15:22;;;;;;;5.05;4.38;;;;;;;;;;5094026;28;20125;-88
2023/01/10 06:17:49;;;;;;;5.65;4.22;;;;;;;;;;5095358;28;20048;-88
2023/01/10 06:20:16;;;;;;;4.90;4.50;;;;;;;;;;5094266;28;20071;-88
2023/01/10 06:22:43;;;;;;;7.60;5.13;;;;;;;;;;5094868;28;20055;-89
2023/01/10 06:25:11;;;;;;;10.35;5.40;;;;;;;;;;5093512;28;20048;-88
2023/01/10 06:27:40;;;;;;;13.18;5.15;;;;;;;;;;5094866;28;20048;-88
2023/01/10 06:30:08;;;;;;;5.55;4.43;;;;;;;;;;5093767;28;20051;-88
2023/01/10 06:32:35;;;;;;;8.77;5.00;;;;;;;;;;5093703;28;20282;-88
2023/01/10 06:35:03;;;;;;;20.77;9.70;;;;;;;;;;5093829;28;20054;-88
2023/01/10 06:37:30;;;;;;;21.23;10.02;;;;;;;;;;5093619;28;20143;-88
2023/01/10 06:39:58;;;;;;;15.95;11.23;;;;;;;;;;5093735;28;20079;-88
2023/01/10 06:42:25;;;;;;;15.48;10.27;;;;;;;;;;5094506;28;20048;-88
2023/01/10 06:44:52;;;;;;;13.23;10.48;;;;;;;;;;5093448;28;20555;-88
2023/01/10 06:47:19;;;;;;;8.13;6.60;;;;;;;;;;5098018;28;20055;-88
2023/01/10 06:49:47;;;;;;;12.25;6.47;;;;;;;;;;5105534;28;20058;-88
2023/01/10 06:52:14;;;;;;;11.23;5.72;;;;;;;;;;5097206;28;20134;-88
2023/01/10 06:54:41;;;;;;;8.73;5.75;;;;;;;;;;5098770;28;20048;-89
2023/01/10 06:57:09;;;;;;;8.38;6.03;;;;;;;;;;5098120;28;20052;-88
2023/01/10 06:59:36;;;;;;;9.60;5.78;;;;;;;;;;5098338;28;20044;-87
2023/01/10 07:02:04;;;;;;;8.60;5.90;;;;;;;;;;5097184;28;20460;-88
2023/01/10 07:04:31;;;;;;;7.47;5.28;;;;;;;;;;5095786;28;20044;-88
2023/01/10 07:06:58;;;;;;;7.72;5.88;;;;;;;;;;5092992;28;20544;-87
2023/01/10 07:09:25;;;;;;;8.32;6.63;;;;;;;;;;5092826;28;20514;-91
2023/01/10 07:11:52;;;;;;;10.25;6.22;;;;;;;;;;5092997;28;20044;-89
2023/01/10 07:14:20;;;;;;;6.50;4.72;;;;;;;;;;5093056;28;20083;-89
2023/01/10 07:16:47;;;;;;;9.60;7.57;;;;;;;;;;5092604;28;20052;-89
2023/01/10 07:19:16;;;;;;;11.25;6.75;;;;;;;;;;5093613;28;20147;-90
2023/01/10 07:21:44;;;;;;;12.45;7.20;;;;;;;;;;5093051;28;20077;-89
2023/01/10 07:24:11;;;;;;;9.95;6.20;;;;;;;;;;5092694;28;20381;-90
2023/01/10 07:26:38;;;;;;;12.00;6.40;;;;;;;;;;5093016;28;20134;-89
2023/01/10 07:29:05;;;;;;;16.42;5.95;;;;;;;;;;5092993;28;20408;-89
2023/01/10 07:31:33;;;;;;;8.90;6.00;;;;;;;;;;5092833;28;20488;-89
2023/01/10 07:34:01;;;;;;;8.35;5.45;;;;;;;;;;5092718;28;20081;-89
2023/01/10 07:36:28;;;;;;;12.98;6.30;;;;;;;;;;5093644;28;20044;-89
2023/01/10 07:38:55;;;;;;;15.88;6.43;;;;;;;;;;5092881;28;20044;-89
2023/01/10 07:41:22;;;;;;;14.05;7.55;;;;;;;;;;5092675;28;20055;-89
2023/01/10 07:43:49;;;;;;;14.02;6.97;;;;;;;;;;5093157;28;20084;-89
2023/01/10 07:46:17;;;;;;;12.48;7.10;;;;;;;;;;5092277;28;20044;-89
2023/01/10 07:48:45;;;;;;;11.23;6.93;;;;;;;;;;5092964;28;20071;-89
2023/01/10 07:51:13;;;;;;;11.57;6.32;;;;;;;;;;5092552;28;20048;-89
2023/01/10 07:53:40;;;;;;;14.48;7.13;;;;;;;;;;5093015;28;20385;-89
2023/01/10 07:56:07;;;;;;;12.05;8.30;;;;;;;;;;5092745;28;20059;-89
2023/01/10 07:58:34;;;;;;;11.30;7.80;;;;;;;;;;5092765;28;20044;-89
2023/01/10 08:01:03;;;;;;;16.85;12.48;;;;;;;;;;5092587;28;20048;-89
2023/01/10 08:03:31;;;;;;;17.13;9.30;;;;;;;;;;5094388;28;20087;-89
2023/01/10 08:06:00;;;;;;;15.45;9.18;;;;;;;;;;5092170;28;20580;-89
2023/01/10 08:08:27;;;;;;;16.50;8.85;;;;;;;;;;5094061;28;20048;-89
2023/01/10 08:10:55;;;;;;;15.05;12.82;;;;;;;;;;5093199;28;20048;-89
2023/01/10 08:13:23;;;;;;;35.70;30.95;;;;;;;;;;5092282;28;20044;-89
2023/01/10 08:15:51;;;;;;;49.20;42.38;;;;;;;;;;5093116;28;20062;-89
2023/01/10 08:18:19;;;;;;;25.48;17.30;;;;;;;;;;5092658;28;20052;-89
2023/01/10 08:20:48;;;;;;;21.80;15.27;;;;;;;;;;5092718;28;20143;-89
2023/01/10 08:23:15;;;;;;;15.32;10.30;;;;;;;;;;5092490;28;20098;-89
2023/01/10 08:25:43;;;;;;;10.30;8.18;;;;;;;;;;5093392;28;20052;-89
2023/01/10 08:28:10;;;;;;;14.95;8.90;;;;;;;;;;5093075;28;20431;-89
2023/01/10 08:30:37;;;;;;;17.45;9.73;;;;;;;;;;5092094;28;20052;-90
2023/01/10 08:33:05;;;;;;;20.65;12.57;;;;;;;;;;5092174;28;20048;-89
2023/01/10 08:35:43;;;;;;;18.80;11.80;;;;;;;;;;5092325;28;20464;-89
2023/01/10 08:38:11;;;;;;;15.35;10.38;;;;;;;;;;5092216;28;20055;-89
2023/01/10 08:40:38;;;;;;;18.10;11.75;;;;;;;;;;5092475;28;20059;-89
2023/01/10 08:43:07;;;;;;;12.95;8.02;;;;;;;;;;5093010;28;20054;-89
2023/01/10 08:45:34;;;;;;;11.93;8.13;;;;;;;;;;5091859;28;20052;-89
2023/01/10 08:48:02;;;;;;;10.60;7.10;;;;;;;;;;5092174;28;20080;-89
2023/01/10 08:50:29;;;;;;;16.83;8.05;;;;;;;;;;5092264;28;20086;-89
2023/01/10 08:53:00;;;;;;;20.52;9.13;;;;;;;;;;5092196;28;20044;-89
2023/01/10 08:55:30;;;;;;;9.52;6.80;;;;;;;;;;5093172;28;20485;-89
2023/01/10 08:58:00;;;;;;;10.95;7.10;;;;;;;;;;5095953;28;20415;-89
2023/01/10 09:00:28;;;;;;;12.23;6.68;;;;;;;;;;5095794;28;20052;-89
2023/01/10 09:02:55;;;;;;;8.05;6.75;;;;;;;;;;5095353;28;20058;-89
2023/01/10 09:05:24;;;;;;;11.93;6.72;;;;;;;;;;5095261;28;20047;-89
2023/01/10 09:07:58;;;;;;;16.33;8.60;;;;;;;;;;5096554;28;20106;-89
2023/01/10 09:10:26;;;;;;;12.50;7.80;;;;;;;;;;5095120;28;20101;-89
2023/01/10 09:12:53;;;;;;;11.88;6.50;;;;;;;;;;5095356;28;20051;-89
2023/01/10 09:15:22;;;;;;;7.53;6.57;;;;;;;;;;5095118;28;20139;-89
2023/01/10 09:17:49;;;;;;;16.08;6.82;;;;;;;;;;5095367;28;20044;-89
2023/01/10 09:20:16;;;;;;;9.88;6.72;;;;;;;;;;5095041;28;20055;-89
2023/01/10 09:22:43;;;;;;;11.35;7.47;;;;;;;;;;5096255;28;20154;-89
2023/01/10 09:25:11;;;;;;;11.77;7.45;;;;;;;;;;5094891;28;20048;-88
2023/01/10 09:27:38;;;;;;;11.70;7.30;;;;;;;;;;5095009;28;20044;-88
2023/01/10 09:30:05;;;;;;;11.05;6.47;;;;;;;;;;5095011;28;20051;-89
2023/01/10 09:32:32;;;;;;;12.68;4.65;;;;;;;;;;5095035;28;20048;-89
2023/01/10 09:35:00;;;;;;;7.90;4.25;;;;;;;;;;5095013;28;20047;-89
2023/01/10 09:37:27;;;;;;;18.45;3.60;;;;;;;;;;5094902;28;20407;-89
2023/01/10 09:39:54;;;;;;;5.65;3.50;;;;;;;;;;5095156;28;20488;-89
2023/01/10 09:42:27;;;;;;;9.32;3.30;;;;;;;;;;5094413;28;20129;-89
2023/01/10 09:45:14;;;;;;;7.73;3.10;;;;;;;;;;5094840;28;20048;-90
2023/01/10 09:47:53;;;;;;;9.73;3.45;;;;;;;;;;5094478;28;20308;-89
2023/01/10 09:50:29;;;;;;;8.38;1.95;;;;;;;;;;5094702;28;20557;-89
2023/01/10 09:53:01;;;;;;;2.75;1.40;;;;;;;;;;5094645;28;20056;-89
2023/01/10 09:55:36;;;;;;;5.30;2.10;;;;;;;;;;5094344;28;20050;-88
2023/01/10 09:58:05;;;;;;;3.40;1.90;;;;;;;;;;5094374;28;20095;-88
2023/01/10 10:00:37;;;;;;;5.00;2.13;;;;;;;;;;5094506;28;20467;-89
2023/01/10 10:03:14;;;;;;;3.97;1.63;;;;;;;;;;5094585;28;20071;-89
2023/01/10 10:05:42;;;;;;;5.47;1.88;;;;;;;;;;5093033;28;20074;-89
2023/01/10 10:08:15;;;;;;;5.85;1.75;;;;;;;;;;5093722;28;20052;-88
2023/01/10 10:10:59;;;;;;;3.28;1.25;;;;;;;;;;5094526;28;20047;-88
2023/01/10 10:13:34;;;;;;;6.95;1.67;;;;;;;;;;5094111;28;20059;-88
2023/01/10 10:16:01;;;;;;;3.78;1.55;;;;;;;;;;5093812;28;20060;-88
2023/01/10 10:18:44;;;;;;;5.90;1.48;;;;;;;;;;5093488;28;20097;-89
2023/01/10 10:21:14;;;;;;;6.75;1.65;;;;;;;;;;5093427;28;20048;-88
2023/01/10 10:23:48;;;;;;;4.82;1.30;;;;;;;;;;5093829;28;20558;-88
2023/01/10 10:26:24;;;;;;;9.05;1.70;;;;;;;;;;5094642;28;20054;-87
2023/01/10 10:28:57;;;;;;;6.70;1.63;;;;;;;;;;5093805;28;20059;-88
2023/01/10 10:31:36;;;;;;;4.03;1.45;;;;;;;;;;5093850;28;20059;-88
2023/01/10 10:34:22;;;;;;;5.47;1.30;;;;;;;;;;5094619;28;20044;-89
2023/01/10 10:36:55;;;;;;;5.82;1.90;;;;;;;;;;5093626;28;20139;-89
2023/01/10 10:39:43;;;;;;;8.55;1.95;;;;;;;;;;5093574;28;20040;-88
2023/01/10 10:42:12;;;;;;;8.98;2.05;;;;;;;;;;5093517;28;20439;-88
2023/01/10 10:44:43;;;;;;;9.38;1.40;;;;;;;;;;5093468;28;20055;-88
2023/01/10 10:47:15;;;;;;;4.75;1.58;;;;;;;;;;5093463;28;20070;-88
2023/01/10 10:49:59;;;;;;;6.85;1.85;;;;;;;;;;5093375;28;20090;-88
2023/01/10 10:52:26;;;;;;;;;;;;;;;;;;5093702;28;20055;-88
2023/01/10 10:54:54;;;;;;;5.38;1.92;;;;;;;;;;5093178;28;19934;-88
2023/01/10 10:57:24;;;;;;;7.15;1.60;;;;;;;;;;5094133;28;20058;-88
2023/01/10 10:59:51;;;;;;;4.20;1.38;;;;;;;;;;5093287;28;20048;-87
2023/01/10 11:02:23;;;;;;;8.90;1.95;;;;;;;;;;5094230;28;20080;-88
2023/01/10 11:04:52;;;;;;;9.35;1.50;;;;;;;;;;5093149;28;20051;-88
2023/01/10 11:07:20;;;;;;;6.68;1.38;;;;;;;;;;5092444;28;20048;-88
2023/01/10 11:10:13;;;;;;;6.93;1.38;;;;;;;;;;5092858;28;20131;-88
2023/01/10 11:12:46;;;;;;;4.03;1.77;;;;;;;;;;5093171;28;20052;-88
2023/01/10 11:15:32;;;;;;;3.08;1.10;;;;;;;;;;5092740;28;20068;-89
2023/01/10 11:18:04;;;;;;;4.18;1.65;;;;;;;;;;5092373;28;20138;-87
2023/01/10 11:20:32;;;;;;;4.10;1.50;;;;;;;;;;5093785;28;20040;-87
2023/01/10 11:22:59;;;;;;;8.57;1.70;;;;;;;;;;5093086;28;20052;-88
2023/01/10 11:25:26;;;;;;;2.65;1.23;;;;;;;;;;5092723;28;20044;-87
2023/01/10 11:27:54;;;;;;;4.63;1.40;;;;;;;;;;5092605;28;20404;-88
2023/01/10 11:30:23;;;;;;;3.83;1.33;;;;;;;;;;5092983;28;20427;-88
2023/01/10 11:32:55;;;;;;;6.15;1.73;;;;;;;;;;5093094;28;20047;-87
2023/01/10 11:35:27;;;;;;;2.03;1.30;;;;;;;;;;5092602;28;20048;-88
2023/01/10 11:38:03;;;;;;;4.43;1.35;;;;;;;;;;5092790;28;20052;-87
2023/01/10 11:40:32;;;;;;;3.90;1.58;;;;;;;;;;5092731;28;20147;-88
2023/01/10 11:42:59;;;;;;;3.53;1.40;;;;;;;;;;5092824;28;20054;-88
2023/01/10 11:45:30;;;;;;;8.35;1.80;;;;;;;;;;5092516;28;20494;-88
2023/01/10 11:48:02;;;;;;;3.70;1.48;;;;;;;;;;5092525;28;20084;-87
2023/01/10 11:50:37;;;;;;;3.53;1.20;;;;;;;;;;5092623;28;20044;-88
2023/01/10 11:53:05;;;;;;;1.98;1.20;;;;;;;;;;5092605;28;20225;-88
2023/01/10 11:55:34;;;;;;;4.13;1.50;;;;;;;;;;5092581;28;20052;-88
2023/01/10 11:58:13;;;;;;;4.20;1.33;;;;;;;;;;5092633;28;20056;-88
2023/01/10 12:00:46;;;;;;;4.43;1.27;;;;;;;;;;5092584;28;20074;-88
2023/01/10 12:03:22;;;;;;;4.97;1.10;;;;;;;;;;5092237;28;20101;-88
2023/01/10 12:05:50;;;;;;;4.35;1.45;;;;;;;;;;5092314;28;20054;-88
2023/01/10 12:08:25;;;;;;;6.85;1.65;;;;;;;;;;5092636;28;20052;-88
2023/01/10 12:11:04;;;;;;;3.03;1.10;;;;;;;;;;5092389;28;20055;-88
2023/01/10 12:13:43;;;;;;;2.70;0.90;;;;;;;;;;5092250;28;20076;-86
2023/01/10 12:16:16;;;;;;;2.60;1.20;;;;;;;;;;5092031;28;20518;-87
2023/01/10 12:18:44;;;;;;;;;;;;;;;;;;5093671;28;20480;-87
2023/01/10 12:21:13;;;;;;;4.00;1.20;;;;;;;;;;5092149;28;19920;-86
2023/01/10 12:23:43;;;;;;;1.65;0.93;;;;;;;;;;5092234;28;20416;-87
2023/01/10 12:26:12;;;;;;;3.90;1.10;;;;;;;;;;5092435;28;20044;-88
2023/01/10 12:28:42;;;;;;;4.47;1.27;;;;;;;;;;5092725;28;20048;-88
2023/01/10 12:31:14;;;;;;;3.17;1.58;;;;;;;;;;5095541;28;20373;-87
2023/01/10 12:33:45;;;;;;;2.25;1.25;;;;;;;;;;5096082;28;20425;-87
2023/01/10 12:36:17;;;;;;;4.25;1.15;;;;;;;;;;5095897;28;20263;-88
2023/01/10 12:39:05;;;;;;;4.50;1.40;;;;;;;;;;5095683;28;20488;-88
2023/01/10 12:44:44;;;;;;;1.50;0.70;;;;;;;;;;5096950;28;20044;-88
2023/01/10 12:47:24;;;;;;;2.50;1.13;;;;;;;;;;5095346;28;20564;-89
2023/01/10 12:49:51;;;;;;;4.57;1.17;;;;;;;;;;5095689;28;20052;-87
2023/01/10 12:52:31;;;;;;;8.73;1.10;;;;;;;;;;5096458;28;20449;-88
2023/01/10 12:55:02;;;;;;;3.63;1.40;;;;;;;;;;5095403;28;20477;-88
2023/01/10 12:57:35;;;;;;;3.78;1.27;;;;;;;;;;5095636;28;20055;-88
2023/01/10 13:00:04;;;;;;;2.08;1.05;;;;;;;;;;5095717;28;20143;-87
2023/01/10 13:02:40;;;;;;;5.57;1.58;;;;;;;;;;5095594;28;20404;-88
2023/01/10 13:05:12;;;;;;;5.65;1.50;;;;;;;;;;5095542;28;20056;-88
2023/01/10 13:07:40;;;;;;;4.07;1.30;;;;;;;;;;5095189;28;20507;-88
2023/01/10 13:10:12;;;;;;;3.95;1.27;;;;;;;;;;5095792;28;20480;-88
2023/01/10 13:12:41;;;;;;;3.75;1.30;;;;;;;;;;5095616;28;20052;-88
2023/01/10 13:15:26;;;;;;;6.50;1.60;;;;;;;;;;5095356;28;20055;-89
2023/01/10 13:18:05;;;;;;;8.95;4.43;;;;;;;;;;5095479;28;20040;-88
2023/01/10 13:20:37;;;;;;;6.78;2.08;;;;;;;;;;5094816;28;20071;-88
2023/01/10 13:23:13;;;;;;;4.22;1.25;;;;;;;;;;5095565;28;20388;-88
2023/01/10 13:25:40;;;;;;;4.63;1.98;;;;;;;;;;5095015;28;20052;-88
2023/01/10 13:28:19;;;;;;;4.07;1.20;;;;;;;;;;5095049;28;20518;-88
2023/01/10 13:30:54;;;;;;;2.92;0.95;;;;;;;;;;5096075;28;20052;-88
2023/01/10 13:33:21;;;;;;;2.72;1.02;;;;;;;;;;5095897;28;20123;-88
2023/01/10 13:35:48;;;;;;;7.55;1.45;;;;;;;;;;5095042;28;20052;-88
2023/01/10 13:38:18;;;;;;;6.03;1.20;;;;;;;;;;5094767;28;20050;-87
2023/01/10 13:41:04;;;;;;;5.60;1.67;;;;;;;;;;5094220;28;20048;-87
2023/01/10 13:43:39;;;;;;;5.95;1.50;;;;;;;;;;5094094;28;20541;-88
2023/01/10 13:46:26;;;;;;;4.97;1.15;;;;;;;;;;5094564;28;20064;-88
2023/01/10 13:48:58;;;;;;;5.90;1.30;;;;;;;;;;5081422;28;20052;-88
2023/01/10 13:51:26;;;;;;;4.65;1.50;;;;;;;;;;5094547;28;20052;-88
2023/01/10 13:53:56;;;;;;;9.50;1.83;;;;;;;;;;5094582;28;20552;-88
2023/01/10 13:56:28;;;;;;;12.13;2.00;;;;;;;;;;5094385;28;20052;-87
2023/01/10 14:04:33;;;;;;;4.38;1.55;;;;;;;;;;5094779;28;20511;-88
2023/01/10 14:07:05;;;;;;;8.68;1.80;;;;;;;;;;5093434;28;20131;-87
2023/01/10 14:09:35;;;;;;;4.97;1.55;;;;;;;;;;5093536;28;20055;-88
2023/01/10 14:12:17;;;;;;;3.83;1.25;;;;;;;;;;5093166;28;20062;-88
2023/01/10 14:14:50;;;;;;;6.65;1.80;;;;;;;;;;5093297;28;20051;-88
2023/01/10 14:17:31;;;;;;;5.03;1.20;;;;;;;;;;5093204;28;20055;-87
2023/01/10 14:20:04;;;;;;;7.38;1.48;;;;;;;;;;5093336;28;20247;-88
2023/01/10 14:22:32;;;;;;;;;;;;;;;;;;5093668;28;20052;-88
2023/01/10 14:25:00;;;;;;;9.23;1.23;;;;;;;;;;5092900;28;19920;-88
2023/01/10 14:27:37;;;;;;;6.15;1.48;;;;;;;;;;5092860;28;20151;-88
2023/01/10 14:30:05;;;;;;;6.07;1.70;;;;;;;;;;5093529;28;20083;-88
2023/01/10 14:32:34;;;;;;;9.20;2.00;;;;;;;;;;5095352;28;20169;-88
2023/01/10 14:35:03;;;;;;;7.72;1.73;;;;;;;;;;5092739;28;20108;-88
2023/01/10 14:37:39;;;;;;;7.13;1.70;;;;;;;;;;5092900;28;20152;-88
2023/01/10 14:40:15;;;;;;;13.68;2.30;;;;;;;;;;5092818;28;20492;-88
2023/01/10 14:42:43;;;;;;;11.63;1.52;;;;;;;;;;5092768;28;20503;-88
2023/01/10 14:45:25;;;;;;;6.25;1.55;;;;;;;;;;5092913;28;20575;-88
2023/01/10 14:47:53;;;;;;;6.15;1.63;;;;;;;;;;5092468;28;20175;-88
2023/01/10 14:50:26;;;;;;;8.82;1.67;;;;;;;;;;5092750;28;20058;-87
2023/01/10 14:52:55;;;;;;;12.57;1.48;;;;;;;;;;5092584;28;20052;-88
2023/01/10 14:55:22;;;;;;;10.18;2.35;;;;;;;;;;5092579;28;20477;-88
2023/01/10 14:57:54;;;;;;;11.13;2.00;;;;;;;;;;5092550;28;20054;-88
2023/01/10 15:00:25;;;;;;;8.48;2.00;;;;;;;;;;5092315;28;20064;-87
2023/01/10 15:02:52;;;;;;;10.05;2.05;;;;;;;;;;5092715;28;20054;-89
2023/01/10 15:05:19;;;;;;;6.90;1.67;;;;;;;;;;5092581;28;20059;-88
2023/01/10 15:07:46;;;;;;;12.10;2.08;;;;;;;;;;5092298;28;20052;-88
2023/01/10 15:10:22;;;;;;;10.15;2.33;;;;;;;;;;5092626;28;20050;-88
2023/01/10 15:12:54;;;;;;;6.43;1.67;;;;;;;;;;5092422;28;20135;-88
2023/01/10 15:15:48;;;;;;;7.07;1.90;;;;;;;;;;5092040;28;20079;-88
2023/01/10 15:18:30;;;;;;;10.52;1.90;;;;;;;;;;5089172;28;20048;-88